Time;durP1;ratioP1;P1;durP2;ratioP2;P2;SDS_P1;SDS_P2;PMS_P1;PMS_P2;Temp;Humidity;BMP_temperature;BMP_pressure;BME280_temperature;BME280_humidity;BME280_pressure;Samples;Min_cycle;Max_cycle;Signal;HPM_P1;HPM_P2
2022/02/20 00:00:33;;;;;;;6.53;2.23;;;;;;;8.02;44.96;97691.63;8349594;28;20314;-69
2022/02/20 00:04:36;;;;;;;6.27;2.10;;;;;;;8.21;44.13;97691.75;8342042;28;20232;-70
2022/02/20 00:08:39;;;;;;;8.47;2.03;;;;;;;7.81;46.88;97693.28;8350348;28;20232;-69
2022/02/20 00:12:44;;;;;;;8.90;2.40;;;;;;;7.70;48.83;97682.50;8351006;28;20240;-69
2022/02/20 00:16:47;;;;;;;6.77;2.03;;;;;;;7.79;49.68;97702.81;8350442;28;20235;-69
2022/02/20 00:20:50;;;;;;;6.50;2.10;;;;;;;7.60;51.25;97706.03;8350410;28;20244;-69
2022/02/20 00:24:53;;;;;;;6.83;2.20;;;;;;;7.62;52.42;97701.66;8350238;28;20232;-69
2022/02/20 00:28:58;;;;;;;10.43;2.47;;;;;;;7.33;54.27;97701.88;8350396;28;20236;-69
2022/02/20 00:33:01;;;;;;;6.33;1.93;;;;;;;7.14;55.55;97705.13;8350136;28;20233;-69
2022/02/20 00:37:05;;;;;;;6.63;1.90;;;;;;;7.58;54.67;97692.38;8350321;28;20239;-69
2022/02/20 00:41:07;;;;;;;7.53;1.90;;;;;;;7.67;54.45;97695.50;8349537;28;20235;-69
2022/02/20 00:45:12;;;;;;;8.23;2.47;;;;;;;7.49;54.53;97697.84;8349289;28;20240;-69
2022/02/20 00:49:15;;;;;;;7.90;2.30;;;;;;;7.72;54.40;97698.75;8348995;28;20397;-68
2022/02/20 00:53:18;;;;;;;6.37;2.03;;;;;;;7.74;54.51;97691.81;8349341;28;20235;-68
2022/02/20 00:57:21;;;;;;;5.77;2.07;;;;;;;7.56;54.80;97675.31;8349180;28;20429;-68
2022/02/20 01:01:26;;;;;;;5.37;2.10;;;;;;;7.86;53.75;97675.88;8348672;28;20243;-69
2022/02/20 01:05:29;;;;;;;5.93;2.00;;;;;;;7.59;54.74;97682.91;8349121;28;20236;-69
2022/02/20 01:09:32;;;;;;;5.77;1.97;;;;;;;7.38;55.78;97671.66;8348177;28;20238;-69
2022/02/20 01:13:35;;;;;;;5.13;1.83;;;;;;;7.51;55.30;97665.16;8348407;28;20247;-69
2022/02/20 01:17:40;;;;;;;6.87;2.20;;;;;;;7.51;55.06;97654.84;8348376;28;20239;-70
2022/02/20 01:21:42;;;;;;;8.57;2.40;;;;;;;7.56;55.16;97650.38;8348526;28;20248;-70
2022/02/20 01:25:45;;;;;;;9.20;2.40;;;;;;;7.46;55.24;97641.28;8348247;28;20251;-70
2022/02/20 01:29:48;;;;;;;8.37;2.33;;;;;;;7.12;56.13;97636.50;8348108;28;20238;-69
2022/02/20 01:33:53;;;;;;;7.93;2.60;;;;;;;7.39;55.48;97619.22;8347953;28;20247;-69
2022/02/20 01:37:56;;;;;;;5.60;2.20;;;;;;;7.47;55.35;97618.94;8348143;28;20228;-69
2022/02/20 01:41:58;;;;;;;8.30;1.97;;;;;;;7.45;55.43;97639.63;8347793;28;20235;-69
2022/02/20 01:46:01;;;;;;;7.20;2.07;;;;;;;7.31;56.17;97613.50;8349854;28;20220;-69
2022/02/20 01:50:07;;;;;;;7.03;2.07;;;;;;;7.40;55.21;97646.66;8349633;28;20387;-69
2022/02/20 01:54:10;;;;;;;6.97;2.43;;;;;;;7.47;55.86;97629.25;8349773;28;20204;-69
2022/02/20 01:58:13;;;;;;;6.43;1.70;;;;;;;7.41;55.74;97640.63;8349010;28;20248;-69
2022/02/20 02:02:19;;;;;;;7.03;2.00;;;;;;;7.36;56.18;97622.75;8347700;28;20232;-69
2022/02/20 02:06:24;;;;;;;5.40;1.87;;;;;;;7.56;55.42;97634.91;8347832;28;20227;-69
2022/02/20 02:10:27;;;;;;;6.80;2.23;;;;;;;7.33;55.92;97632.31;8347800;28;20231;-70
2022/02/20 02:14:30;;;;;;;7.03;2.10;;;;;;;7.48;55.76;97624.03;8347155;28;20259;-68
2022/02/20 02:18:33;;;;;;;6.20;1.90;;;;;;;7.73;54.62;97631.69;8346602;28;20231;-69
2022/02/20 02:22:38;;;;;;;8.43;1.90;;;;;;;7.55;54.97;97624.66;8347335;28;20247;-70
2022/02/20 02:26:42;;;;;;;5.63;1.83;;;;;;;7.72;54.71;97634.31;8346858;28;20240;-70
2022/02/20 02:30:47;;;;;;;7.73;2.07;;;;;;;7.72;54.68;97619.69;8347152;28;20232;-70
2022/02/20 02:34:50;;;;;;;5.77;1.60;;;;;;;7.69;54.56;97606.94;8347200;28;20543;-70
2022/02/20 02:38:54;;;;;;;6.63;1.93;;;;;;;7.69;54.65;97601.78;8346982;28;20235;-70
2022/02/20 02:42:57;;;;;;;6.50;1.97;;;;;;;7.74;54.77;97607.56;8346872;28;20239;-70
2022/02/20 02:47:00;;;;;;;5.43;1.73;;;;;;;7.68;54.65;97597.50;8346769;28;20228;-69
2022/02/20 02:51:05;;;;;;;5.20;1.87;;;;;;;7.76;54.64;97581.75;8346859;28;20239;-69
2022/02/20 02:55:09;;;;;;;7.47;2.00;;;;;;;7.90;54.13;97584.63;8346963;28;20228;-70
2022/02/20 02:59:12;;;;;;;5.23;1.77;;;;;;;7.84;54.69;97592.59;8346744;28;20545;-70
2022/02/20 03:03:16;;;;;;;5.60;1.77;;;;;;;7.72;54.83;97585.34;8346426;28;20236;-70
2022/02/20 03:07:19;;;;;;;6.03;1.97;;;;;;;7.85;54.48;97575.41;8346604;28;20228;-70
2022/02/20 03:11:23;;;;;;;5.63;1.83;;;;;;;7.87;54.10;97569.28;8349875;28;20228;-70
2022/02/20 03:15:26;;;;;;;5.47;1.60;;;;;;;7.92;54.13;97574.22;8352528;28;20228;-69
2022/02/20 03:19:29;;;;;;;6.27;1.70;;;;;;;7.86;54.52;97571.91;8352164;28;20243;-70
2022/02/20 03:23:32;;;;;;;5.00;1.50;;;;;;;7.77;54.76;97596.31;8351558;28;20232;-70
2022/02/20 03:27:36;;;;;;;7.43;2.20;;;;;;;7.78;54.88;97591.09;8351913;28;20243;-70
2022/02/20 03:31:39;;;;;;;7.63;1.90;;;;;;;7.72;54.87;97598.22;8351839;28;20236;-70
2022/02/20 03:35:44;;;;;;;6.60;2.13;;;;;;;7.86;55.04;97614.00;8351816;28;20305;-70
2022/02/20 03:39:47;;;;;;;7.60;1.90;;;;;;;7.95;55.09;97630.84;8351934;28;20243;-70
2022/02/20 03:43:52;;;;;;;7.70;2.10;;;;;;;7.92;54.96;97636.13;8351621;28;20244;-70
2022/02/20 03:47:55;;;;;;;7.63;1.97;;;;;;;7.84;55.37;97636.41;8351615;28;20240;-70
2022/02/20 03:51:58;;;;;;;9.17;1.93;;;;;;;7.96;54.81;97633.38;8351498;28;20232;-70
2022/02/20 03:56:01;;;;;;;7.77;2.00;;;;;;;8.09;54.89;97636.31;8351181;28;20228;-70
2022/02/20 04:00:11;;;;;;;6.47;2.30;;;;;;;8.07;54.10;97643.25;8351016;28;20232;-70
2022/02/20 04:04:14;;;;;;;5.23;1.53;;;;;;;8.15;54.11;97636.06;8350652;28;20239;-70
2022/02/20 04:08:17;;;;;;;4.73;1.53;;;;;;;8.28;53.80;97657.06;8350854;28;20228;-70
2022/02/20 04:12:20;;;;;;;5.87;2.10;;;;;;;8.23;53.79;97658.97;8350738;28;20232;-69
2022/02/20 04:16:24;;;;;;;5.47;1.60;;;;;;;8.37;53.58;97672.16;8350764;28;20403;-69
2022/02/20 04:20:29;;;;;;;6.00;1.70;;;;;;;8.39;53.05;97677.25;8350511;28;20235;-70
2022/02/20 04:24:32;;;;;;;6.10;1.93;;;;;;;8.60;52.75;97683.31;8348903;28;20546;-70
2022/02/20 04:28:35;;;;;;;4.90;1.40;;;;;;;8.20;53.33;97669.41;8350245;28;20240;-70
2022/02/20 04:32:41;;;;;;;5.47;1.80;;;;;;;8.37;53.49;97676.47;8350139;28;20239;-70
2022/02/20 04:36:44;;;;;;;7.10;1.43;;;;;;;8.48;53.33;97683.84;8350042;28;20539;-69
2022/02/20 04:40:47;;;;;;;6.17;1.80;;;;;;;8.38;53.32;97689.31;8349741;28;20232;-70
2022/02/20 04:44:51;;;;;;;6.37;1.50;;;;;;;8.30;53.90;97687.94;8349855;28;20244;-70
2022/02/20 04:48:55;;;;;;;8.73;2.23;;;;;;;8.16;54.20;97702.22;8349696;28;20243;-70
2022/02/20 04:52:58;;;;;;;7.23;1.70;;;;;;;8.34;53.56;97690.34;8349491;28;20231;-70
2022/02/20 04:57:01;;;;;;;4.70;1.50;;;;;;;8.46;53.39;97701.13;8349331;28;20232;-70
2022/02/20 05:01:04;;;;;;;5.93;1.63;;;;;;;8.51;53.44;97709.50;8349489;28;20232;-70
2022/02/20 05:05:10;;;;;;;5.87;2.13;;;;;;;8.49;53.32;97699.25;8349026;28;20418;-70
2022/02/20 05:09:16;;;;;;;6.50;1.40;;;;;;;8.35;53.77;97707.50;8349160;28;20238;-70
2022/02/20 05:13:19;;;;;;;3.67;1.63;;;;;;;8.36;54.49;97703.19;8348962;28;20228;-69
2022/02/20 05:17:22;;;;;;;7.50;1.63;;;;;;;8.45;53.88;97713.16;8349186;28;20232;-70
2022/02/20 05:21:26;;;;;;;7.77;1.90;;;;;;;8.47;53.78;97719.09;8348802;28;20546;-70
2022/02/20 05:25:29;;;;;;;5.93;1.57;;;;;;;8.45;54.02;97717.50;8348700;28;20251;-70
2022/02/20 05:29:32;;;;;;;5.17;1.60;;;;;;;8.35;54.58;97737.63;8348014;28;20228;-70
2022/02/20 05:33:36;;;;;;;4.67;1.80;;;;;;;8.43;54.67;97722.72;8347186;28;20235;-70
2022/02/20 05:37:44;;;;;;;5.13;1.73;;;;;;;8.57;53.91;97724.75;8348208;28;20232;-70
2022/02/20 05:41:48;;;;;;;6.13;1.70;;;;;;;8.44;54.94;97728.72;8348233;28;20428;-70
2022/02/20 05:45:51;;;;;;;5.80;1.47;;;;;;;8.30;55.30;97724.06;8347594;28;20362;-70
2022/02/20 05:49:54;;;;;;;3.83;1.23;;;;;;;8.51;54.99;97735.31;8348054;28;20526;-70
2022/02/20 05:53:58;;;;;;;6.17;1.80;;;;;;;8.52;55.20;97739.59;8348159;28;20236;-70
2022/02/20 05:58:01;;;;;;;5.60;1.80;;;;;;;8.45;55.25;97744.13;8347757;28;20228;-70
2022/02/20 06:02:04;;;;;;;4.43;1.73;;;;;;;8.65;54.89;97745.09;8347597;28;20531;-70
2022/02/20 06:06:07;;;;;;;7.77;2.13;;;;;;;8.59;55.09;97766.84;8347301;28;20228;-70
2022/02/20 06:10:12;;;;;;;4.10;1.57;;;;;;;8.68;55.02;97770.78;8347092;28;20565;-70
2022/02/20 06:14:19;;;;;;;6.83;1.80;;;;;;;8.40;55.90;97785.59;8347867;28;20254;-70
2022/02/20 06:18:22;;;;;;;5.13;1.80;;;;;;;8.70;55.11;97785.31;8347251;28;20228;-70
2022/02/20 06:22:25;;;;;;;5.50;1.63;;;;;;;8.70;54.91;97771.56;8347236;28;20228;-70
2022/02/20 06:26:29;;;;;;;5.40;1.60;;;;;;;8.41;56.09;97770.94;8347528;28;20236;-69
2022/02/20 06:30:33;;;;;;;5.37;1.80;;;;;;;8.74;55.01;97775.72;8346489;28;20239;-70
2022/02/20 06:34:36;;;;;;;2.80;1.40;;;;;;;8.56;55.67;97785.00;8346836;28;20235;-70
2022/02/20 06:38:38;;;;;;;4.37;1.53;;;;;;;8.43;55.68;97786.38;8347378;28;20550;-70
2022/02/20 06:42:43;;;;;;;4.10;1.57;;;;;;;8.52;55.84;97789.47;8346533;28;20235;-70
2022/02/20 06:46:46;;;;;;;5.87;1.63;;;;;;;8.47;56.35;97791.38;8348089;28;20235;-69
2022/02/20 06:50:49;;;;;;;5.03;1.60;;;;;;;8.45;56.27;97793.16;8352583;28;20224;-69
2022/02/20 06:54:52;;;;;;;5.13;1.80;;;;;;;8.57;56.13;97810.78;8352360;28;20537;-70
2022/02/20 06:58:57;;;;;;;4.60;1.53;;;;;;;8.67;55.83;97813.84;8352051;28;20236;-70
2022/02/20 07:03:02;;;;;;;6.30;1.70;;;;;;;8.47;56.43;97821.50;8351733;28;20248;-70
2022/02/20 07:07:05;;;;;;;6.30;1.70;;;;;;;8.70;55.99;97830.94;8351792;28;20228;-70
2022/02/20 07:11:08;;;;;;;4.23;1.40;;;;;;;8.76;55.78;97828.13;8351078;28;20247;-70
2022/02/20 07:15:13;;;;;;;5.77;1.90;;;;;;;8.50;56.73;97842.03;8351610;28;20231;-69
2022/02/20 07:19:18;;;;;;;6.97;1.60;;;;;;;8.60;56.50;97846.81;8347708;28;20228;-70
2022/02/20 07:23:24;;;;;;;6.53;1.90;;;;;;;8.87;55.80;97844.06;8351401;28;20295;-69
2022/02/20 07:27:27;;;;;;;3.63;1.63;;;;;;;8.88;55.94;97842.31;8351413;28;20236;-69
2022/02/20 07:31:32;;;;;;;5.20;1.90;;;;;;;9.07;55.42;97845.81;8351279;28;20236;-69
2022/02/20 07:35:35;;;;;;;5.23;1.90;;;;;;;8.94;55.87;97842.88;8351296;28;20232;-69
2022/02/20 07:39:38;;;;;;;7.30;1.90;;;;;;;9.10;55.72;97845.72;8351322;28;20232;-69
2022/02/20 07:43:44;;;;;;;7.07;1.80;;;;;;;9.28;55.14;97828.59;8351429;28;20247;-69
2022/02/20 07:47:51;;;;;;;6.43;1.80;;;;;;;9.15;55.64;97832.59;8350662;28;20248;-70
2022/02/20 07:51:53;;;;;;;6.03;1.80;;;;;;;9.17;55.73;97823.03;8351037;28;20511;-69
2022/02/20 07:55:56;;;;;;;5.03;1.47;;;;;;;9.44;54.75;97823.63;8350367;28;20232;-69
2022/02/20 08:00:00;;;;;;;7.13;1.90;;;;;;;9.45;54.93;97835.66;8350830;28;20236;-69
2022/02/20 08:04:05;;;;;;;3.97;1.40;;;;;;;9.42;55.06;97833.19;8350599;28;20239;-69
2022/02/20 08:08:08;;;;;;;6.33;1.60;;;;;;;9.30;55.50;97831.13;8350617;28;20231;-70
2022/02/20 08:12:11;;;;;;;5.13;1.30;;;;;;;9.42;55.37;97833.19;8350505;28;20224;-70
2022/02/20 08:16:14;;;;;;;5.40;1.70;;;;;;;9.52;54.61;97833.66;8350810;28;20243;-69
2022/02/20 08:20:19;;;;;;;5.67;1.67;;;;;;;9.29;55.87;97824.28;8350519;28;20228;-70
2022/02/20 08:24:22;;;;;;;5.03;1.80;;;;;;;9.36;55.59;97825.72;8350420;28;20232;-69
2022/02/20 08:28:25;;;;;;;5.50;1.47;;;;;;;9.17;56.07;97829.03;8350066;28;20236;-70
2022/02/20 08:32:27;;;;;;;4.77;1.50;;;;;;;9.30;55.72;97831.97;8349779;28;20531;-70
2022/02/20 08:36:32;;;;;;;5.60;1.97;;;;;;;9.47;55.23;97833.84;8348240;28;20232;-71
2022/02/20 08:40:36;;;;;;;4.27;1.80;;;;;;;9.49;55.60;97836.38;8347877;28;20519;-70
2022/02/20 08:44:41;;;;;;;5.13;1.60;;;;;;;9.69;54.87;97830.34;8348054;28;20228;-70
2022/02/20 08:48:46;;;;;;;5.53;1.73;;;;;;;9.64;55.00;97832.31;8348572;28;20263;-70
2022/02/20 08:52:51;;;;;;;3.33;1.50;;;;;;;9.58;55.30;97838.59;8349298;28;20540;-69
2022/02/20 08:56:54;;;;;;;6.47;2.00;;;;;;;9.68;55.11;97837.28;8349174;28;20286;-69
2022/02/20 09:00:58;;;;;;;3.83;1.43;;;;;;;9.59;55.11;97845.41;8349096;28;20232;-69
2022/02/20 09:05:04;;;;;;;5.50;2.33;;;;;;;9.53;55.45;97838.75;8348924;28;20256;-69
2022/02/20 09:09:08;;;;;;;8.23;4.17;;;;;;;9.46;55.27;97847.69;8348842;28;20232;-69
2022/02/20 09:13:11;;;;;;;5.27;2.23;;;;;;;9.50;55.57;97849.25;8348679;28;20547;-69
2022/02/20 09:17:14;;;;;;;4.33;1.70;;;;;;;9.42;55.81;97845.28;8348992;28;20236;-69
2022/02/20 09:21:17;;;;;;;6.37;1.43;;;;;;;9.55;55.30;97843.88;8348264;28;20235;-69
2022/02/20 09:25:21;;;;;;;4.60;1.60;;;;;;;9.18;56.47;97838.50;8348197;28;20239;-69
2022/02/20 09:29:24;;;;;;;5.67;1.40;;;;;;;9.39;56.27;97841.09;8348254;28;20235;-69
2022/02/20 09:33:28;;;;;;;4.87;1.30;;;;;;;9.57;55.79;97835.13;8348493;28;20232;-69
2022/02/20 09:37:31;;;;;;;4.67;1.43;;;;;;;9.71;55.00;97837.16;8340135;28;20223;-70
2022/02/20 09:41:36;;;;;;;5.93;1.87;;;;;;;9.55;55.40;97825.78;8346930;28;20231;-69
2022/02/20 09:45:39;;;;;;;6.07;1.73;;;;;;;9.62;55.32;97821.19;8346844;28;20242;-69
2022/02/20 09:49:44;;;;;;;3.37;1.53;;;;;;;9.80;55.05;97812.63;8347200;28;20654;-69
2022/02/20 09:53:48;;;;;;;5.70;1.63;;;;;;;9.81;54.69;97826.41;8347366;28;20252;-69
2022/02/20 09:57:52;;;;;;;4.87;1.67;;;;;;;9.87;55.15;97815.78;8347586;28;20243;-69
2022/02/20 10:02:05;;;;;;;4.77;1.40;;;;;;;9.80;55.00;97804.88;8347671;28;20235;-69
2022/02/20 10:06:26;;;;;;;4.00;1.60;;;;;;;9.89;55.50;97798.47;8347053;28;20334;-69
2022/02/20 10:10:29;;;;;;;5.97;1.43;;;;;;;9.78;55.60;97802.34;8347210;28;20234;-69
2022/02/20 10:14:34;;;;;;;6.03;1.90;;;;;;;10.11;54.58;97791.44;8346986;28;20639;-69
2022/02/20 10:18:37;;;;;;;3.87;1.40;;;;;;;10.14;53.98;97793.84;8346895;28;20539;-70
2022/02/20 10:22:40;;;;;;;3.83;1.00;;;;;;;10.14;54.17;97800.78;8344309;28;20232;-69
2022/02/20 10:26:44;;;;;;;3.27;1.20;;;;;;;10.16;54.26;97798.97;8352730;28;20232;-69
2022/02/20 10:30:49;;;;;;;6.27;1.63;;;;;;;9.87;54.84;97801.09;8352879;28;20228;-69
2022/02/20 10:34:53;;;;;;;4.73;1.40;;;;;;;10.21;54.14;97798.78;8350278;28;20242;-71
2022/02/20 10:38:56;;;;;;;3.57;1.13;;;;;;;10.14;55.16;97801.63;8353025;28;20232;-69
2022/02/20 10:43:00;;;;;;;4.37;1.40;;;;;;;10.10;54.47;97807.00;8352997;28;20531;-69
2022/02/20 10:47:13;;;;;;;7.27;1.70;;;;;;;10.01;55.00;97784.13;8352416;28;20232;-70
2022/02/20 10:51:18;;;;;;;4.47;1.20;;;;;;;10.09;55.45;97787.22;8352232;28;20546;-69
2022/02/20 10:55:21;;;;;;;2.10;1.10;;;;;;;10.13;54.77;97784.44;8352282;28;20296;-69
2022/02/20 10:59:24;;;;;;;2.50;1.23;;;;;;;10.11;55.38;97780.22;8352102;28;20235;-69
2022/02/20 11:03:29;;;;;;;4.00;1.53;;;;;;;10.10;54.94;97769.03;8352157;28;20228;-69
2022/02/20 11:07:34;;;;;;;2.60;1.70;;;;;;;10.03;55.11;97757.28;8349106;28;20236;-70
2022/02/20 11:11:40;;;;;;;5.90;4.30;;;;;;;10.13;55.21;97755.13;8352802;28;20246;-69
2022/02/20 11:15:45;;;;;;;5.07;2.30;;;;;;;11.74;68.71;97746.41;8351903;28;20255;-68
2022/02/20 11:19:53;;;;;;;5.60;3.60;;;;;;;11.43;58.16;97742.81;8352477;28;20238;-68
2022/02/20 11:24:00;;;;;;;4.60;2.30;;;;;;;11.98;53.83;97730.50;8352203;28;20311;-68
2022/02/20 11:28:04;;;;;;;3.57;1.20;;;;;;;11.23;52.59;97717.91;8352320;28;20236;-69
2022/02/20 11:32:08;;;;;;;3.87;1.10;;;;;;;11.14;53.20;97698.47;8352408;28;20562;-69
2022/02/20 11:36:13;;;;;;;2.43;1.00;;;;;;;11.07;53.06;97693.69;8351937;28;20255;-69
2022/02/20 11:40:16;;;;;;;1.77;0.97;;;;;;;10.69;53.13;97689.47;8350917;28;20228;-69
2022/02/20 11:44:21;;;;;;;1.93;0.80;;;;;;;10.68;53.35;97680.06;8350260;28;20561;-69
2022/02/20 11:48:24;;;;;;;2.03;0.97;;;;;;;10.67;53.22;97673.19;8350658;28;20228;-69
2022/02/20 11:52:45;;;;;;;3.30;1.10;;;;;;;10.29;54.07;97678.44;8351129;28;20252;-68
2022/02/20 11:57:23;;;;;;;2.23;1.00;;;;;;;10.84;52.55;97667.16;8350724;28;20240;-69
2022/02/20 12:01:27;;;;;;;1.97;1.00;;;;;;;10.60;52.53;97658.84;8348135;28;20334;-69
2022/02/20 12:05:30;;;;;;;2.00;0.90;;;;;;;10.59;52.57;97661.53;8349182;28;20240;-69
2022/02/20 12:09:35;;;;;;;2.50;1.20;;;;;;;10.52;52.68;97650.63;8349414;28;20235;-65
2022/02/20 12:13:45;;;;;;;1.57;0.90;;;;;;;10.48;52.61;97639.59;8349687;28;20234;-65
2022/02/20 12:17:59;;;;;;;0.97;0.80;;;;;;;10.56;52.39;97655.56;8347937;28;20228;-66
2022/02/20 12:22:25;;;;;;;1.17;0.80;;;;;;;10.56;52.31;97634.88;8348696;28;20239;-66
2022/02/20 12:26:46;;;;;;;1.23;0.80;;;;;;;10.86;51.66;97621.31;8348623;28;20539;-66
2022/02/20 12:30:52;;;;;;;1.90;0.77;;;;;;;10.98;51.50;97616.41;8347968;28;20461;-66
2022/02/20 12:35:13;;;;;;;1.20;0.57;;;;;;;10.95;51.60;97630.38;8347899;28;20227;-65
2022/02/20 12:39:16;;;;;;;1.63;0.70;;;;;;;10.91;51.30;97615.91;8348298;28;20290;-66
2022/02/20 12:43:27;;;;;;;1.47;0.60;;;;;;;10.75;51.52;97621.84;8345678;28;20228;-66
2022/02/20 12:47:34;;;;;;;0.80;0.60;;;;;;;10.92;51.09;97609.78;8347976;28;20243;-66
2022/02/20 12:51:39;;;;;;;2.53;0.70;;;;;;;10.79;51.35;97621.69;8347806;28;20224;-66
2022/02/20 12:55:43;;;;;;;1.47;0.80;;;;;;;11.00;50.94;97622.34;8346340;28;20242;-66
2022/02/20 12:59:55;;;;;;;3.20;1.30;;;;;;;10.73;51.62;97633.19;8348023;28;20231;-66
2022/02/20 13:03:58;;;;;;;1.50;0.70;;;;;;;10.84;51.38;97612.78;8347615;28;20224;-66
2022/02/20 13:08:07;;;;;;;1.33;0.60;;;;;;;10.69;52.10;97616.13;8345319;28;20291;-66
2022/02/20 13:12:17;;;;;;;2.90;0.90;;;;;;;11.14;50.87;97612.94;8346929;28;20231;-66
2022/02/20 13:16:27;;;;;;;1.43;0.60;;;;;;;10.99;51.38;97603.38;8347539;28;20251;-66
2022/02/20 13:20:34;;;;;;;1.23;0.70;;;;;;;10.79;51.95;97591.44;8345968;28;20418;-66
2022/02/20 13:24:37;;;;;;;1.53;0.67;;;;;;;10.93;52.02;97585.56;8340085;28;20224;-66
2022/02/20 13:28:44;;;;;;;2.80;0.93;;;;;;;10.63;52.36;97578.44;8347570;28;20444;-66
2022/02/20 13:32:48;;;;;;;1.57;0.67;;;;;;;10.85;52.36;97559.19;8348120;28;20236;-66
2022/02/20 13:36:53;;;;;;;1.13;0.67;;;;;;;11.04;51.52;97554.75;8348273;28;20248;-66
2022/02/20 13:40:58;;;;;;;1.63;0.90;;;;;;;11.10;51.98;97545.78;8347896;28;20236;-66
2022/02/20 13:45:05;;;;;;;1.00;0.60;;;;;;;11.03;51.59;97566.03;8347832;28;20238;-65
2022/02/20 13:49:10;;;;;;;1.57;0.83;;;;;;;11.24;51.35;97555.44;8347719;28;20240;-66
2022/02/20 13:53:13;;;;;;;1.43;0.80;;;;;;;11.14;51.64;97550.75;8348177;28;20224;-65
2022/02/20 13:57:24;;;;;;;0.80;0.80;;;;;;;10.88;52.25;97538.31;8347134;28;20236;-65
2022/02/20 14:01:40;;;;;;;4.20;1.00;;;;;;;10.79;52.62;97544.81;8347648;28;20236;-65
2022/02/20 14:05:46;;;;;;;1.63;0.93;;;;;;;10.78;52.89;97542.31;8347155;28;20565;-66
2022/02/20 14:09:50;;;;;;;2.60;0.90;;;;;;;10.59;53.28;97537.25;8347786;28;20239;-66
2022/02/20 14:13:53;;;;;;;1.27;0.70;;;;;;;10.80;53.05;97515.41;8347589;28;20232;-66
2022/02/20 14:17:58;;;;;;;1.00;0.60;;;;;;;10.62;53.15;97513.78;8346941;28;20577;-65
2022/02/20 14:22:03;;;;;;;1.70;0.80;;;;;;;10.75;53.18;97507.03;8347811;28;20417;-66
2022/02/20 14:26:08;;;;;;;3.40;2.10;;;;;;;10.96;52.84;97500.72;8346852;28;20238;-66
2022/02/20 14:30:12;;;;;;;1.53;1.10;;;;;;;10.68;53.82;97497.91;8347603;28;20228;-66
2022/02/20 14:34:20;;;;;;;1.27;0.87;;;;;;;10.95;52.99;97485.28;8346640;28;20399;-66
2022/02/20 14:38:24;;;;;;;1.83;0.80;;;;;;;10.82;53.38;97494.63;8347374;28;20234;-66
2022/02/20 14:42:27;;;;;;;2.03;0.77;;;;;;;10.85;53.77;97487.53;8347582;28;20228;-66
2022/02/20 14:46:31;;;;;;;1.73;1.00;;;;;;;10.91;53.36;97481.19;8346694;28;20236;-66
2022/02/20 14:50:36;;;;;;;1.67;0.77;;;;;;;10.89;54.06;97477.81;8346409;28;20262;-66
2022/02/20 14:54:41;;;;;;;1.77;0.70;;;;;;;10.82;54.28;97486.84;8346272;28;20233;-66
2022/02/20 14:58:44;;;;;;;2.00;0.80;;;;;;;10.96;54.33;97464.44;8346113;28;20236;-66
2022/02/20 15:02:47;;;;;;;1.23;0.57;;;;;;;10.72;55.38;97455.44;8346679;28;20539;-66
2022/02/20 15:06:50;;;;;;;2.57;2.10;;;;;;;10.58;55.80;97463.91;8348995;28;20236;-65
2022/02/20 15:10:54;;;;;;;2.17;1.57;;;;;;;10.76;55.59;97464.69;8352447;28;20507;-65
2022/02/20 15:15:00;;;;;;;1.13;0.50;;;;;;;10.40;56.39;97432.06;8352589;28;20412;-66
2022/02/20 15:19:06;;;;;;;3.13;0.80;;;;;;;10.63;55.95;97433.44;8352502;28;20228;-65
2022/02/20 15:23:09;;;;;;;2.03;0.97;;;;;;;10.76;55.89;97420.69;8352626;28;20260;-66
2022/02/20 15:27:14;;;;;;;1.43;1.20;;;;;;;10.98;55.14;97415.16;8352274;28;20240;-66
2022/02/20 15:31:17;;;;;;;1.37;0.67;;;;;;;11.08;54.73;97431.03;8351448;28;20239;-66
2022/02/20 15:35:22;;;;;;;1.47;0.70;;;;;;;10.95;55.34;97436.06;8352090;28;20236;-66
2022/02/20 15:39:25;;;;;;;0.80;0.50;;;;;;;10.90;55.62;97449.25;8351640;28;20231;-66
2022/02/20 15:43:29;;;;;;;2.97;0.73;;;;;;;10.75;55.72;97430.16;8351368;28;20227;-66
2022/02/20 15:47:32;;;;;;;1.97;1.00;;;;;;;10.75;55.61;97419.81;8351290;28;20240;-66
2022/02/20 15:51:35;;;;;;;1.10;0.60;;;;;;;10.75;55.81;97419.00;8351481;28;20527;-66
2022/02/20 15:55:39;;;;;;;1.10;0.70;;;;;;;10.91;55.86;97419.00;8351334;28;20240;-65
2022/02/20 15:59:43;;;;;;;1.83;0.60;;;;;;;10.53;56.14;97421.91;8351783;28;20247;-65
2022/02/20 16:03:47;;;;;;;2.40;0.70;;;;;;;10.72;55.88;97394.09;8351543;28;20235;-65
2022/02/20 16:07:50;;;;;;;3.23;0.70;;;;;;;10.79;55.67;97393.75;8351271;28;20247;-66
2022/02/20 16:11:53;;;;;;;1.83;0.60;;;;;;;10.76;55.31;97390.41;8350153;28;20224;-66
2022/02/20 16:15:58;;;;;;;2.00;0.80;;;;;;;10.72;55.32;97386.34;8350010;28;20224;-66
2022/02/20 16:20:01;;;;;;;2.90;1.33;;;;;;;10.78;55.29;97381.75;8349296;28;20523;-66
2022/02/20 16:24:04;;;;;;;5.00;3.67;;;;;;;10.54;55.54;97390.72;8350210;28;20242;-66
2022/02/20 16:28:07;;;;;;;2.63;2.00;;;;;;;10.68;55.42;97378.78;8349331;28;20240;-65
2022/02/20 16:32:14;;;;;;;2.63;0.97;;;;;;;10.69;54.79;97378.72;8349945;28;20306;-66
2022/02/20 16:36:17;;;;;;;1.60;0.73;;;;;;;10.85;55.33;97360.59;8349854;28;20539;-66
2022/02/20 16:40:24;;;;;;;1.17;0.70;;;;;;;10.83;55.22;97351.22;8349155;28;20278;-66
2022/02/20 16:44:30;;;;;;;1.27;0.70;;;;;;;10.70;55.67;97354.50;8348053;28;20273;-66
2022/02/20 16:48:34;;;;;;;3.10;1.00;;;;;;;10.68;55.59;97351.16;8347912;28;20231;-66
2022/02/20 16:52:37;;;;;;;2.53;0.90;;;;;;;10.60;55.01;97345.53;8345993;28;20232;-66
2022/02/20 16:56:40;;;;;;;2.13;1.20;;;;;;;10.66;55.22;97344.38;8345993;28;20239;-66
2022/02/20 17:00:43;;;;;;;1.43;1.00;;;;;;;10.74;56.13;97322.34;8348570;28;20228;-66
2022/02/20 17:04:48;;;;;;;1.93;1.10;;;;;;;10.76;56.95;97330.84;8349309;28;20232;-66
2022/02/20 17:08:51;;;;;;;1.47;1.10;;;;;;;10.91;57.36;97355.06;8348799;28;20248;-66
2022/02/20 17:12:55;;;;;;;5.17;3.70;;;;;;;10.78;58.62;97348.91;8348471;28;20511;-66
2022/02/20 17:16:58;;;;;;;3.50;2.23;;;;;;;10.79;57.84;97349.72;8348933;28;20430;-66
2022/02/20 17:21:02;;;;;;;1.87;1.00;;;;;;;10.70;58.79;97338.09;8347383;28;20239;-66
2022/02/20 17:25:06;;;;;;;2.40;1.20;;;;;;;10.71;59.34;97339.78;8348341;28;20535;-65
2022/02/20 17:29:13;;;;;;;2.50;0.87;;;;;;;10.75;59.24;97338.69;8347734;28;20227;-70
2022/02/20 17:33:16;;;;;;;3.83;0.73;;;;;;;10.62;59.70;97342.88;8346571;28;20224;-71
2022/02/20 17:37:21;;;;;;;1.70;1.00;;;;;;;10.57;59.26;97318.09;8347266;28;20569;-71
2022/02/20 17:41:27;;;;;;;1.37;1.10;;;;;;;10.62;59.05;97317.81;8347220;28;20405;-71
2022/02/20 17:45:31;;;;;;;2.93;2.10;;;;;;;10.68;58.20;97319.22;8347027;28;20232;-71
2022/02/20 17:49:34;;;;;;;0.90;0.70;;;;;;;10.55;57.80;97319.91;8345877;28;20415;-71
2022/02/20 17:53:39;;;;;;;4.83;0.90;;;;;;;10.66;57.38;97305.53;8346805;28;20408;-72
2022/02/20 17:57:42;;;;;;;1.93;0.90;;;;;;;10.69;57.42;97307.97;8344145;28;20559;-71
2022/02/20 18:01:46;;;;;;;1.03;0.93;;;;;;;10.60;57.20;97303.28;8346973;28;20285;-71
2022/02/20 18:05:49;;;;;;;0.90;0.80;;;;;;;10.69;56.48;97305.38;8347353;28;20270;-73
2022/02/20 18:09:54;;;;;;;0.70;0.60;;;;;;;10.81;56.74;97302.09;8347497;28;20262;-72
2022/02/20 18:13:57;;;;;;;2.27;0.70;;;;;;;10.77;56.61;97290.25;8338011;28;20236;-72
2022/02/20 18:18:01;;;;;;;1.37;0.77;;;;;;;10.71;56.81;97296.59;8347365;28;20238;-71
2022/02/20 18:22:07;;;;;;;0.67;0.60;;;;;;;10.71;56.54;97282.81;8347181;28;20506;-73
2022/02/20 18:26:14;;;;;;;0.73;0.60;;;;;;;10.55;57.64;97286.25;8347538;28;20235;-72
2022/02/20 18:30:20;;;;;;;1.20;0.67;;;;;;;10.55;57.57;97283.66;8346888;28;20367;-71
2022/02/20 18:34:23;;;;;;;0.50;0.50;;;;;;;10.64;57.21;97269.41;8346012;28;20307;-73
2022/02/20 18:38:27;;;;;;;0.80;0.50;;;;;;;10.71;57.58;97269.88;8347209;28;20247;-72
2022/02/20 18:42:32;;;;;;;1.00;0.70;;;;;;;10.66;57.54;97249.44;8351122;28;20305;-73
2022/02/20 18:46:35;;;;;;;1.03;0.70;;;;;;;10.74;57.38;97257.59;8352921;28;20557;-71
2022/02/20 18:50:38;;;;;;;1.23;0.80;;;;;;;10.79;57.45;97235.78;8353166;28;20231;-72
2022/02/20 18:54:41;;;;;;;2.53;0.73;;;;;;;10.54;57.57;97221.63;8353367;28;20231;-72
2022/02/20 18:58:45;;;;;;;1.10;0.90;;;;;;;10.69;57.59;97222.50;8353272;28;20298;-72
2022/02/20 19:02:48;;;;;;;1.23;0.70;;;;;;;10.73;57.05;97206.69;8352107;28;20232;-72
2022/02/20 19:06:51;;;;;;;1.63;1.03;;;;;;;10.51;57.50;97201.94;8352630;28;20247;-72
2022/02/20 19:10:56;;;;;;;0.80;0.70;;;;;;;10.64;57.06;97212.44;8353168;28;20228;-72
2022/02/20 19:15:01;;;;;;;1.67;0.80;;;;;;;10.70;56.95;97214.66;8352576;28;20227;-72
2022/02/20 19:19:06;;;;;;;1.27;0.60;;;;;;;10.80;56.93;97198.59;8352703;28;20224;-72